Time;durP1;ratioP1;P1;durP2;ratioP2;P2;SDS_P1;SDS_P2;PMS_P1;PMS_P2;Temp;Humidity;BMP_temperature;BMP_pressure;BME280_temperature;BME280_humidity;BME280_pressure;Samples;Min_cycle;Max_cycle;Signal;HPM_P1;HPM_P2
2021/12/09 00:01:32;;;;;;;8.10;5.33;;;;;;;4.78;100.00;97366.25;5021563;27;103876;-68
2021/12/09 00:04:08;;;;;;;9.40;6.10;;;;;;;4.63;100.00;97368.16;5021519;27;104122;-68
2021/12/09 00:06:39;;;;;;;9.20;5.07;;;;;;;4.76;100.00;97376.84;5021854;27;103260;-68
2021/12/09 00:09:12;;;;;;;12.57;5.50;;;;;;;4.70;100.00;97364.16;5019979;27;102774;-68
2021/12/09 00:11:44;;;;;;;9.33;4.93;;;;;;;4.68;100.00;97376.53;5019447;27;102813;-66
2021/12/09 00:14:15;;;;;;;5.20;3.60;;;;;;;4.73;100.00;97369.19;5019612;27;103274;-66
2021/12/09 00:16:43;;;;;;;7.90;4.03;;;;;;;4.56;100.00;97366.91;5019110;27;103747;-66
2021/12/09 00:19:14;;;;;;;6.57;4.07;;;;;;;4.55;100.00;97373.91;5018502;27;102730;-66
2021/12/09 00:21:42;;;;;;;6.30;3.70;;;;;;;4.60;100.00;97373.63;5019159;27;102694;-66
2021/12/09 00:24:10;;;;;;;5.50;3.43;;;;;;;4.66;100.00;97373.16;5021836;27;103393;-66
2021/12/09 00:26:39;;;;;;;8.67;4.20;;;;;;;4.63;100.00;97376.03;5020578;27;103214;-66
2021/12/09 00:29:08;;;;;;;5.37;3.40;;;;;;;4.61;100.00;97376.09;5020262;27;102678;-66
2021/12/09 00:31:36;;;;;;;6.60;3.50;;;;;;;4.60;100.00;97379.66;5017969;27;104026;-66
2021/12/09 00:34:04;;;;;;;7.67;3.80;;;;;;;4.55;100.00;97383.53;5018343;27;103260;-67
2021/12/09 00:36:40;;;;;;;8.33;3.60;;;;;;;4.54;100.00;97381.88;5020029;27;104100;-66
2021/12/09 00:39:12;;;;;;;7.23;3.27;;;;;;;4.37;100.00;97383.03;5014824;27;102731;-66
2021/12/09 00:41:40;;;;;;;6.37;3.03;;;;;;;4.45;100.00;97385.97;5017336;27;104029;-66
2021/12/09 00:44:09;;;;;;;6.90;3.70;;;;;;;4.41;100.00;97383.63;5021171;27;103057;-66
2021/12/09 00:46:39;;;;;;;5.77;2.87;;;;;;;4.46;100.00;97386.81;5017723;27;103173;-66
2021/12/09 00:49:08;;;;;;;6.60;3.50;;;;;;;4.26;100.00;97384.69;5017465;27;102644;-66
2021/12/09 00:51:40;;;;;;;5.40;2.97;;;;;;;4.41;100.00;97386.25;5036425;27;103831;-66
2021/12/09 00:54:08;;;;;;;5.83;3.10;;;;;;;4.50;100.00;97386.47;5015499;27;104007;-68
2021/12/09 00:56:36;;;;;;;5.43;3.20;;;;;;;4.47;100.00;97396.28;5020785;27;103199;-68
2021/12/09 00:59:04;;;;;;;6.50;3.80;;;;;;;4.44;100.00;97399.13;5017321;27;102948;-68
2021/12/09 01:01:32;;;;;;;6.73;3.43;;;;;;;4.50;100.00;97396.09;5018702;27;102851;-66
2021/12/09 01:04:00;;;;;;;5.83;2.97;;;;;;;4.48;100.00;97396.22;5018645;27;103476;-68
2021/12/09 01:06:28;;;;;;;6.10;3.10;;;;;;;4.42;100.00;97401.00;5019106;27;103272;-66
2021/12/09 01:08:57;;;;;;;5.67;3.33;;;;;;;4.48;100.00;97400.59;5021218;27;103821;-66
2021/12/09 01:11:28;;;;;;;7.33;4.27;;;;;;;4.48;100.00;97406.69;5016962;27;103285;-68
2021/12/09 01:13:56;;;;;;;4.50;3.37;;;;;;;4.49;100.00;97407.50;5017216;27;103039;-68
2021/12/09 01:16:24;;;;;;;3.40;2.50;;;;;;;4.59;100.00;97403.31;5016158;27;103350;-66
2021/12/09 01:18:53;;;;;;;5.53;3.03;;;;;;;4.53;100.00;97403.72;5021646;27;104273;-68
2021/12/09 01:21:20;;;;;;;6.40;3.63;;;;;;;4.50;100.00;97403.94;5021662;27;104278;-68
2021/12/09 01:23:48;;;;;;;6.23;3.13;;;;;;;4.54;100.00;97400.19;5019878;27;103316;-66
2021/12/09 01:26:18;;;;;;;5.13;3.17;;;;;;;4.44;100.00;97401.72;5018995;27;103200;-66
2021/12/09 01:28:50;;;;;;;9.60;3.70;;;;;;;4.39;100.00;97411.69;5015196;27;102768;-67
2021/12/09 01:31:23;;;;;;;6.93;3.50;;;;;;;4.47;100.00;97412.00;5017362;27;103514;-68
2021/12/09 01:33:53;;;;;;;7.70;4.30;;;;;;;4.41;100.00;97409.78;5019408;27;103408;-66
2021/12/09 01:36:21;;;;;;;9.17;3.77;;;;;;;4.45;100.00;97412.09;5018701;27;104134;-66
2021/12/09 01:38:50;;;;;;;4.03;2.63;;;;;;;4.53;100.00;97416.81;5030375;27;102712;-68
2021/12/09 01:41:19;;;;;;;3.67;2.10;;;;;;;4.56;100.00;97419.22;5020828;27;103042;-68
2021/12/09 01:43:47;;;;;;;4.57;2.60;;;;;;;4.56;100.00;97420.06;5020626;27;103135;-68
2021/12/09 01:46:20;;;;;;;4.40;2.27;;;;;;;4.62;100.00;97429.25;5015563;27;104127;-66
2021/12/09 01:48:50;;;;;;;5.37;2.50;;;;;;;4.65;100.00;97434.28;5022355;27;102669;-66
2021/12/09 01:51:21;;;;;;;3.57;2.60;;;;;;;4.69;100.00;97435.75;5020374;27;102831;-66
2021/12/09 01:53:51;;;;;;;6.47;2.67;;;;;;;4.59;100.00;97425.09;5016081;27;103266;-67
2021/12/09 01:56:23;;;;;;;5.77;2.97;;;;;;;4.58;100.00;97423.41;5019979;27;102975;-67
2021/12/09 01:58:53;;;;;;;7.07;3.53;;;;;;;4.29;100.00;97427.16;5019364;27;102779;-67
2021/12/09 02:01:22;;;;;;;6.37;2.43;;;;;;;4.46;100.00;97418.19;5011685;27;103943;-66
2021/12/09 02:03:51;;;;;;;6.50;3.70;;;;;;;4.42;100.00;97406.25;5016505;27;103171;-66
2021/12/09 02:06:20;;;;;;;4.07;2.87;;;;;;;4.48;100.00;97405.84;5020387;27;103588;-66
2021/12/09 02:08:51;;;;;;;4.20;2.60;;;;;;;4.51;100.00;97408.25;5020416;27;102673;-66
2021/12/09 02:11:20;;;;;;;9.83;3.93;;;;;;;4.45;100.00;97425.19;5017080;27;102933;-67
2021/12/09 02:13:51;;;;;;;5.70;3.00;;;;;;;4.56;100.00;97424.44;5016180;27;103278;-66
2021/12/09 02:16:20;;;;;;;6.87;3.40;;;;;;;4.52;100.00;97429.03;5020667;27;103193;-67
2021/12/09 02:18:50;;;;;;;10.43;3.93;;;;;;;4.44;100.00;97435.72;5019285;27;102725;-68
2021/12/09 02:21:22;;;;;;;6.70;3.43;;;;;;;4.49;100.00;97441.50;5014133;27;103722;-67
2021/12/09 02:23:53;;;;;;;6.67;2.80;;;;;;;4.47;100.00;97446.84;5018415;27;102873;-66
2021/12/09 02:26:25;;;;;;;5.03;2.37;;;;;;;4.49;100.00;97454.59;5018249;27;103234;-67
2021/12/09 02:28:54;;;;;;;3.73;2.30;;;;;;;4.49;100.00;97465.06;5016492;27;102830;-67
2021/12/09 02:31:26;;;;;;;5.20;3.67;;;;;;;4.47;100.00;97472.97;5018382;27;102673;-66
2021/12/09 02:33:55;;;;;;;5.23;2.70;;;;;;;4.54;100.00;97463.81;5018768;27;103311;-68
2021/12/09 02:36:25;;;;;;;4.17;2.80;;;;;;;4.49;100.00;97475.50;5014722;27;104561;-68
2021/12/09 02:38:54;;;;;;;4.77;2.20;;;;;;;4.51;100.00;97473.63;5016874;27;103111;-66
2021/12/09 02:41:25;;;;;;;7.13;3.20;;;;;;;4.37;100.00;97486.78;5016316;27;103937;-68
2021/12/09 02:43:57;;;;;;;9.27;4.60;;;;;;;4.24;100.00;97491.97;5017491;27;103303;-66
2021/12/09 02:46:27;;;;;;;6.87;3.90;;;;;;;4.29;100.00;97492.53;5018293;27;103179;-67
2021/12/09 02:48:56;;;;;;;7.37;4.33;;;;;;;4.33;100.00;97488.75;5021155;27;102892;-67
2021/12/09 02:51:25;;;;;;;9.40;4.40;;;;;;;4.30;100.00;97488.13;5022197;27;102750;-67
2021/12/09 02:53:53;;;;;;;10.20;4.50;;;;;;;4.38;100.00;97472.78;5021579;27;103268;-67
2021/12/09 02:56:21;;;;;;;8.60;4.70;;;;;;;4.40;100.00;97476.97;5019175;27;103218;-68
2021/12/09 02:58:49;;;;;;;11.57;5.00;;;;;;;4.41;100.00;97465.53;5022405;27;102795;-66
2021/12/09 03:01:20;;;;;;;9.33;5.00;;;;;;;4.40;100.00;97468.28;5014181;27;102751;-66
2021/12/09 03:03:57;;;;;;;8.90;4.90;;;;;;;4.26;100.00;97463.13;5025045;27;103297;-66
2021/12/09 03:06:37;;;;;;;9.60;5.50;;;;;;;4.30;100.00;97467.19;5019438;27;102818;-66
2021/12/09 03:09:08;;;;;;;8.30;4.43;;;;;;;4.37;100.00;97473.72;5019397;27;102787;-66
2021/12/09 03:11:37;;;;;;;7.43;4.13;;;;;;;4.40;100.00;97465.66;5021740;27;104092;-66
2021/12/09 03:14:06;;;;;;;9.20;4.37;;;;;;;4.37;100.00;97463.25;5018714;27;103991;-66
2021/12/09 03:16:34;;;;;;;13.57;4.10;;;;;;;4.40;100.00;97465.66;5020141;27;103194;-66
2021/12/09 03:19:06;;;;;;;12.73;4.43;;;;;;;4.26;100.00;97469.19;5018330;27;103159;-66
2021/12/09 03:21:37;;;;;;;10.20;4.33;;;;;;;4.24;100.00;97475.47;5018548;27;102636;-66
2021/12/09 03:24:11;;;;;;;6.57;4.00;;;;;;;4.19;100.00;97474.91;5016333;27;103431;-66
2021/12/09 03:26:43;;;;;;;8.37;4.30;;;;;;;4.27;100.00;97472.63;5018763;27;103256;-66
2021/12/09 03:29:13;;;;;;;8.37;4.13;;;;;;;4.29;100.00;97470.78;5017850;27;102654;-66
2021/12/09 03:31:44;;;;;;;13.30;4.60;;;;;;;4.05;100.00;97476.66;5021492;27;104099;-66
2021/12/09 03:34:14;;;;;;;4.60;3.43;;;;;;;4.16;100.00;97482.94;5021797;27;104329;-66
2021/12/09 03:36:43;;;;;;;11.97;4.87;;;;;;;4.09;100.00;97478.16;5017676;27;103195;-66
2021/12/09 03:39:18;;;;;;;8.90;4.20;;;;;;;4.06;100.00;97488.81;5020657;27;102625;-67
2021/12/09 03:41:48;;;;;;;8.33;4.57;;;;;;;4.12;100.00;97484.94;5022198;27;102818;-67
2021/12/09 03:44:17;;;;;;;5.57;3.60;;;;;;;4.21;100.00;97494.78;5021188;28;103261;-68
2021/12/09 03:46:46;;;;;;;9.00;4.03;;;;;;;4.19;100.00;97493.22;5016363;28;103667;-66
2021/12/09 03:49:15;;;;;;;8.13;4.20;;;;;;;4.26;100.00;97489.28;5020810;27;102706;-66
2021/12/09 03:51:44;;;;;;;8.87;3.93;;;;;;;4.22;100.00;97491.25;5023663;27;102945;-66
2021/12/09 03:54:13;;;;;;;11.17;4.03;;;;;;;4.18;100.00;97486.31;5024499;27;103712;-66
2021/12/09 03:56:41;;;;;;;8.97;4.80;;;;;;;4.25;100.00;97498.03;5024435;27;103891;-66
2021/12/09 03:59:11;;;;;;;7.30;4.03;;;;;;;4.24;100.00;97493.78;5017078;27;102734;-66
2021/12/09 04:01:42;;;;;;;8.13;3.67;;;;;;;4.25;100.00;97492.81;5024129;27;102900;-66
2021/12/09 04:04:12;;;;;;;11.13;4.17;;;;;;;4.28;100.00;97492.59;5021923;27;103337;-66
2021/12/09 04:06:46;;;;;;;10.03;3.97;;;;;;;4.32;100.00;97500.19;5021843;27;103207;-66
2021/12/09 04:09:22;;;;;;;9.10;3.77;;;;;;;4.23;100.00;97492.94;5020114;27;102721;-66
2021/12/09 04:11:53;;;;;;;11.37;4.57;;;;;;;4.20;100.00;97500.97;5021798;27;102728;-66
2021/12/09 04:14:21;;;;;;;7.10;3.43;;;;;;;4.18;100.00;97502.84;5023842;27;103233;-66
2021/12/09 04:16:50;;;;;;;7.03;3.33;;;;;;;4.24;100.00;97496.38;5020385;27;103221;-67
2021/12/09 04:19:18;;;;;;;8.07;4.37;;;;;;;4.26;100.00;97504.97;5020341;27;102704;-67
2021/12/09 04:21:47;;;;;;;11.13;5.10;;;;;;;4.16;100.00;97498.63;5037762;27;102767;-67
2021/12/09 04:24:17;;;;;;;8.50;4.33;;;;;;;4.22;100.00;97493.84;5019664;27;103262;-69
2021/12/09 04:26:50;;;;;;;6.43;3.73;;;;;;;4.20;100.00;97494.91;5016099;27;102975;-67
2021/12/09 04:29:19;;;;;;;12.17;4.97;;;;;;;4.15;100.00;97500.44;5018876;27;102684;-67
2021/12/09 04:31:48;;;;;;;8.43;4.40;;;;;;;3.97;100.00;97499.84;5015780;27;104079;-67
2021/12/09 04:34:17;;;;;;;8.43;4.57;;;;;;;4.04;100.00;97513.38;5017895;27;103269;-67
2021/12/09 04:36:49;;;;;;;10.80;5.00;;;;;;;3.98;100.00;97506.75;5021161;27;103012;-67
2021/12/09 04:39:17;;;;;;;6.60;3.67;;;;;;;4.06;100.00;97509.72;5025657;27;102803;-67
2021/12/09 04:41:45;;;;;;;11.37;4.70;;;;;;;4.09;99.92;97519.13;5021144;27;102795;-67
2021/12/09 04:44:13;;;;;;;7.23;3.40;;;;;;;3.94;100.00;97523.56;5021818;27;103236;-67
2021/12/09 04:46:41;;;;;;;10.73;3.70;;;;;;;3.97;100.00;97530.38;5019748;27;103227;-67
2021/12/09 04:49:12;;;;;;;7.97;3.80;;;;;;;4.03;99.81;97540.44;5037966;27;102870;-67
2021/12/09 04:51:40;;;;;;;7.93;3.97;;;;;;;4.06;100.00;97546.31;5019281;27;102765;-64
2021/12/09 04:54:10;;;;;;;6.73;4.07;;;;;;;4.12;99.79;97549.47;5011902;27;103888;-63
2021/12/09 04:56:38;;;;;;;11.67;4.00;;;;;;;4.05;99.38;97555.06;5021570;27;103335;-68
2021/12/09 04:59:07;;;;;;;5.87;3.27;;;;;;;4.11;99.39;97556.44;5016298;27;102628;-68
2021/12/09 05:01:37;;;;;;;7.47;3.80;;;;;;;4.02;99.88;97560.50;5017437;27;102673;-67
2021/12/09 05:04:06;;;;;;;8.40;4.27;;;;;;;3.99;100.00;97563.28;5020489;27;104047;-67
2021/12/09 05:06:36;;;;;;;6.83;3.60;;;;;;;4.02;100.00;97565.72;5022019;27;103249;-66
2021/12/09 05:09:09;;;;;;;9.13;3.43;;;;;;;4.06;100.00;97567.22;5020403;27;102781;-67
2021/12/09 05:11:48;;;;;;;6.00;4.00;;;;;;;3.98;99.71;97564.25;5017151;27;102620;-67
2021/12/09 05:14:18;;;;;;;8.13;4.10;;;;;;;3.99;100.00;97571.13;5019082;27;103222;-66
2021/12/09 05:16:49;;;;;;;6.37;3.77;;;;;;;3.97;100.00;97562.56;5019602;27;103222;-66
2021/12/09 05:19:17;;;;;;;4.03;2.90;;;;;;;3.96;100.00;97566.09;5019209;27;102691;-67
2021/12/09 05:21:48;;;;;;;6.03;3.20;;;;;;;3.93;100.00;97581.16;5019343;27;103794;-67
2021/12/09 05:24:19;;;;;;;6.93;3.10;;;;;;;4.04;99.99;97584.75;5016197;27;102981;-68
2021/12/09 05:26:53;;;;;;;4.73;3.13;;;;;;;4.03;99.52;97592.69;5022053;27;103363;-66
2021/12/09 05:29:28;;;;;;;8.93;4.47;;;;;;;4.07;99.53;97599.38;5019428;27;103052;-66
2021/12/09 05:32:10;;;;;;;6.80;3.20;;;;;;;4.13;99.10;97608.66;4979087;27;102864;-66
2021/12/09 05:34:41;;;;;;;7.10;3.37;;;;;;;4.08;98.91;97615.00;4973700;27;103681;-66
2021/12/09 05:37:12;;;;;;;6.10;3.00;;;;;;;4.15;98.68;97617.22;5013486;27;103212;-66
2021/12/09 05:39:40;;;;;;;8.47;4.03;;;;;;;4.03;97.85;97624.91;5011242;27;102776;-66
2021/12/09 05:42:11;;;;;;;6.57;2.97;;;;;;;4.10;98.58;97626.19;5010628;27;102841;-66
2021/12/09 05:44:40;;;;;;;5.23;3.07;;;;;;;4.13;98.63;97625.16;5010566;27;103280;-66
2021/12/09 05:47:10;;;;;;;5.83;3.20;;;;;;;4.16;98.24;97634.56;5010377;27;103045;-66
2021/12/09 05:49:41;;;;;;;5.47;3.20;;;;;;;4.15;99.13;97627.69;5017752;27;102691;-68
2021/12/09 05:52:10;;;;;;;7.00;4.07;;;;;;;4.06;98.41;97629.94;5020189;27;103066;-66
2021/12/09 05:54:38;;;;;;;3.43;2.77;;;;;;;4.13;99.37;97629.56;5017907;27;104071;-67
2021/12/09 05:57:08;;;;;;;5.80;2.87;;;;;;;4.15;98.97;97638.97;5012690;28;103252;-66
2021/12/09 05:59:40;;;;;;;10.77;3.90;;;;;;;4.06;98.69;97637.78;5019074;27;102657;-67
2021/12/09 06:02:11;;;;;;;6.17;3.57;;;;;;;4.05;99.23;97635.25;5019133;27;103510;-69
2021/12/09 06:04:39;;;;;;;6.13;3.00;;;;;;;4.04;99.69;97631.78;5016310;27;104412;-67
2021/12/09 06:07:08;;;;;;;5.10;2.90;;;;;;;3.98;99.08;97632.19;5019302;27;103184;-69
2021/12/09 06:09:36;;;;;;;6.43;2.80;;;;;;;4.03;99.55;97631.91;5017207;27;102742;-67
2021/12/09 06:12:06;;;;;;;7.80;2.83;;;;;;;3.96;98.54;97639.28;5017310;27;102694;-67
2021/12/09 06:14:35;;;;;;;8.80;2.93;;;;;;;3.94;98.41;97635.94;5018752;28;103415;-69
2021/12/09 06:17:04;;;;;;;10.77;4.00;;;;;;;3.81;97.65;97639.41;5020529;27;102999;-67
2021/12/09 06:19:33;;;;;;;8.13;3.23;;;;;;;3.80;98.85;97637.72;5017644;28;102526;-67
2021/12/09 06:22:01;;;;;;;7.97;2.83;;;;;;;3.90;98.94;97639.66;5018638;28;102637;-69
2021/12/09 06:24:29;;;;;;;5.60;2.30;;;;;;;3.83;99.06;97634.91;5021820;27;103185;-69
2021/12/09 06:26:59;;;;;;;5.03;2.80;;;;;;;3.79;99.01;97636.88;5023484;27;103201;-67
2021/12/09 06:29:27;;;;;;;14.80;3.50;;;;;;;3.83;98.40;97643.59;5016489;27;102737;-69
2021/12/09 06:31:58;;;;;;;5.13;3.03;;;;;;;3.78;99.65;97632.59;5022144;27;102724;-67
2021/12/09 06:34:29;;;;;;;6.60;4.43;;;;;;;3.72;99.84;97635.59;5019367;27;102615;-67
2021/12/09 06:36:58;;;;;;;7.90;4.40;;;;;;;3.67;99.52;97635.03;5019075;27;102974;-67
2021/12/09 06:39:30;;;;;;;4.33;3.17;;;;;;;3.76;99.58;97642.28;5019054;28;102621;-67
2021/12/09 06:41:58;;;;;;;7.47;3.80;;;;;;;3.73;99.77;97641.66;5017438;27;103036;-67
2021/12/09 06:44:27;;;;;;;6.40;3.90;;;;;;;3.79;99.94;97636.88;5020172;28;103630;-67
2021/12/09 06:46:57;;;;;;;6.07;4.20;;;;;;;3.87;100.00;97639.03;4991209;27;106303;-66
2021/12/09 06:49:29;;;;;;;11.03;4.63;;;;;;;3.80;100.00;97638.56;5015313;28;102978;-69
2021/12/09 06:51:59;;;;;;;8.57;4.13;;;;;;;3.81;99.76;97637.63;5016119;27;102723;-67
2021/12/09 06:54:27;;;;;;;10.17;4.90;;;;;;;3.82;99.42;97633.22;5019912;27;104115;-67
2021/12/09 06:56:55;;;;;;;5.73;4.07;;;;;;;3.86;99.90;97627.72;5020716;28;103199;-67
2021/12/09 06:59:24;;;;;;;9.50;4.40;;;;;;;3.93;99.76;97634.25;5022017;27;103031;-67
2021/12/09 07:01:52;;;;;;;5.80;3.33;;;;;;;3.96;99.12;97625.38;5022370;27;104049;-67
2021/12/09 07:04:20;;;;;;;10.00;5.10;;;;;;;3.85;98.79;97631.25;5021925;27;103271;-67
2021/12/09 07:06:50;;;;;;;8.13;5.10;;;;;;;3.88;98.98;97631.06;5020649;27;103178;-67
2021/12/09 07:09:18;;;;;;;8.47;4.60;;;;;;;3.72;99.69;97634.72;5021210;27;102609;-67
2021/12/09 07:11:50;;;;;;;9.07;4.40;;;;;;;3.76;100.00;97637.06;5021608;27;102734;-67
2021/12/09 07:14:19;;;;;;;7.07;3.87;;;;;;;3.89;100.00;97630.16;5019027;27;103278;-67
2021/12/09 07:16:47;;;;;;;5.87;3.63;;;;;;;3.89;100.00;97637.16;5019079;27;102659;-67
2021/12/09 07:19:15;;;;;;;8.67;4.27;;;;;;;3.98;100.00;97642.66;5018237;27;102719;-69
2021/12/09 07:21:43;;;;;;;5.33;3.57;;;;;;;3.99;99.84;97639.09;5022533;27;103952;-69
2021/12/09 07:24:17;;;;;;;7.70;4.17;;;;;;;3.77;99.99;97654.41;5021313;28;103419;-69
2021/12/09 07:26:45;;;;;;;8.83;3.77;;;;;;;3.89;100.00;97650.22;5022626;27;103246;-69
2021/12/09 07:29:13;;;;;;;8.13;3.97;;;;;;;3.79;98.86;97657.75;5021604;27;102718;-69
2021/12/09 07:31:41;;;;;;;6.97;3.40;;;;;;;3.95;98.84;97658.53;5018852;27;102729;-69
2021/12/09 07:34:10;;;;;;;8.73;3.93;;;;;;;3.92;98.15;97668.31;5020930;27;103114;-69
2021/12/09 07:36:38;;;;;;;4.77;2.87;;;;;;;3.85;100.00;97664.38;5022649;27;103237;-68
2021/12/09 07:39:06;;;;;;;5.80;2.40;;;;;;;3.99;99.58;97660.00;5020471;28;103734;-67
2021/12/09 07:41:36;;;;;;;4.63;3.10;;;;;;;4.01;97.12;97667.75;5020610;27;102987;-68
2021/12/09 07:44:05;;;;;;;6.03;3.13;;;;;;;4.04;96.67;97668.38;5016972;27;103222;-68
2021/12/09 07:46:35;;;;;;;4.93;3.07;;;;;;;4.03;96.79;97666.72;5022015;27;103204;-68
2021/12/09 07:49:06;;;;;;;5.07;2.80;;;;;;;4.19;97.03;97668.34;5021969;27;102532;-68
2021/12/09 07:51:34;;;;;;;4.50;3.30;;;;;;;4.15;96.52;97674.72;5019960;27;103950;-68
2021/12/09 07:54:02;;;;;;;4.20;3.03;;;;;;;4.27;96.83;97673.94;5020528;28;104296;-67
2021/12/09 07:56:30;;;;;;;4.83;2.80;;;;;;;4.23;95.09;97677.69;5019153;27;103832;-68
2021/12/09 07:59:00;;;;;;;4.00;2.50;;;;;;;4.30;95.31;97677.22;5020030;27;102937;-69
2021/12/09 08:01:29;;;;;;;7.17;3.00;;;;;;;4.39;95.76;97681.03;5016262;28;102614;-69
2021/12/09 08:03:58;;;;;;;6.20;3.50;;;;;;;4.35;95.62;97679.56;5018828;27;103311;-69
2021/12/09 08:06:26;;;;;;;7.67;3.70;;;;;;;4.37;96.81;97685.50;5021831;27;103180;-69
2021/12/09 08:08:54;;;;;;;3.53;2.63;;;;;;;4.39;96.64;97684.47;5020901;27;102688;-69
2021/12/09 08:11:22;;;;;;;9.17;3.90;;;;;;;4.32;97.04;97679.75;5022067;27;102789;-69
2021/12/09 08:13:50;;;;;;;4.27;3.10;;;;;;;4.38;96.70;97684.59;5022009;27;103232;-69
2021/12/09 08:16:20;;;;;;;7.60;4.17;;;;;;;4.28;95.72;97675.63;5022096;28;102985;-69
2021/12/09 08:18:55;;;;;;;5.70;4.20;;;;;;;4.38;96.40;97682.78;5020830;28;103127;-69
2021/12/09 08:21:25;;;;;;;8.90;3.57;;;;;;;4.40;95.16;97685.31;5021197;28;102612;-69
2021/12/09 08:23:54;;;;;;;5.80;3.57;;;;;;;4.45;94.58;97688.47;5021051;28;103163;-69
2021/12/09 08:26:23;;;;;;;3.50;2.73;;;;;;;4.52;94.22;97690.59;5018499;27;104668;-69
2021/12/09 08:28:54;;;;;;;5.17;3.97;;;;;;;4.52;94.43;97687.16;5022209;28;102938;-69
2021/12/09 08:31:24;;;;;;;4.27;3.40;;;;;;;4.56;95.15;97692.09;5020960;27;102700;-67
2021/12/09 08:33:52;;;;;;;4.73;3.40;;;;;;;4.55;95.03;97697.41;5018294;27;103252;-68
2021/12/09 08:36:40;;;;;;;6.90;4.63;;;;;;;4.60;95.83;97697.97;5020765;28;103196;-67
2021/12/09 08:39:10;;;;;;;6.77;4.70;;;;;;;4.65;96.35;97690.66;5021101;28;102642;-69
2021/12/09 08:41:39;;;;;;;6.13;4.37;;;;;;;4.61;96.25;97699.63;5020479;27;102639;-68
2021/12/09 08:44:08;;;;;;;4.70;3.77;;;;;;;4.79;95.75;97702.84;5020209;27;103181;-69
2021/12/09 08:46:37;;;;;;;9.50;4.93;;;;;;;4.71;94.28;97698.13;5021054;27;103195;-67
2021/12/09 08:49:05;;;;;;;8.57;4.73;;;;;;;4.58;95.02;97703.28;5016908;28;103007;-68
2021/12/09 08:51:33;;;;;;;7.03;4.53;;;;;;;4.65;95.01;97707.22;5020862;27;103099;-69
2021/12/09 08:54:01;;;;;;;6.63;4.53;;;;;;;4.74;94.93;97705.78;5018012;28;103215;-69
2021/12/09 08:56:29;;;;;;;4.27;3.67;;;;;;;4.86;95.15;97714.59;5020221;27;103282;-69
2021/12/09 08:58:58;;;;;;;7.20;3.87;;;;;;;4.92;94.52;97719.44;5019530;27;102585;-68
2021/12/09 09:01:26;;;;;;;5.47;4.23;;;;;;;4.88;93.91;97724.06;5016165;27;103775;-69
2021/12/09 09:03:55;;;;;;;8.87;4.17;;;;;;;4.90;94.23;97722.16;5020725;27;103253;-69
2021/12/09 09:06:23;;;;;;;6.87;4.13;;;;;;;4.79;92.59;97729.88;5020285;27;103161;-67
2021/12/09 09:08:56;;;;;;;7.43;4.50;;;;;;;4.75;93.41;97728.38;5020386;28;102713;-69
2021/12/09 09:11:29;;;;;;;5.97;3.83;;;;;;;4.71;92.78;97737.38;5018987;28;103821;-68
2021/12/09 09:13:57;;;;;;;4.87;3.80;;;;;;;4.89;93.06;97736.19;5021548;27;103236;-69
2021/12/09 09:16:25;;;;;;;4.87;3.60;;;;;;;4.91;92.28;97729.06;5020252;27;103194;-67
2021/12/09 09:18:57;;;;;;;6.23;4.40;;;;;;;4.88;92.25;97738.91;5020698;27;102683;-68
2021/12/09 09:21:28;;;;;;;6.67;4.10;;;;;;;4.95;91.82;97738.41;5019922;28;102646;-68
2021/12/09 09:23:56;;;;;;;5.93;4.00;;;;;;;4.95;91.38;97735.78;5019463;28;104118;-68
2021/12/09 09:26:24;;;;;;;7.63;3.30;;;;;;;5.17;91.83;97741.31;5019625;28;103199;-68
2021/12/09 09:28:53;;;;;;;4.30;3.10;;;;;;;5.20;91.53;97741.09;5021183;28;102787;-69
2021/12/09 09:31:24;;;;;;;6.33;3.40;;;;;;;5.30;91.35;97738.72;5015285;27;103764;-67
2021/12/09 09:33:52;;;;;;;2.90;2.60;;;;;;;5.38;92.65;97748.69;5016908;27;103299;-67
2021/12/09 09:36:22;;;;;;;7.13;4.27;;;;;;;5.23;90.74;97743.53;5016017;28;103354;-67
2021/12/09 09:38:52;;;;;;;5.07;3.73;;;;;;;5.38;91.83;97743.44;5017652;27;103130;-67
2021/12/09 09:41:21;;;;;;;5.60;3.80;;;;;;;5.34;90.05;97749.81;5017404;27;104002;-69
2021/12/09 09:43:58;;;;;;;7.20;4.00;;;;;;;5.44;91.02;97758.75;5013389;27;103208;-69
2021/12/09 09:46:29;;;;;;;6.50;3.93;;;;;;;5.47;89.96;97751.56;5018786;27;103202;-68
2021/12/09 09:49:01;;;;;;;6.77;4.23;;;;;;;5.35;90.10;97754.13;5018356;28;102713;-68
2021/12/09 09:51:31;;;;;;;3.90;3.43;;;;;;;5.36;89.41;97759.25;5017343;27;102591;-68
2021/12/09 09:54:03;;;;;;;5.10;3.83;;;;;;;5.33;89.64;97766.50;5018819;27;103979;-68
2021/12/09 09:56:34;;;;;;;5.30;3.67;;;;;;;5.44;89.79;97764.00;5018875;27;103164;-67
2021/12/09 09:59:05;;;;;;;5.63;3.67;;;;;;;5.48;88.77;97762.84;5019871;27;102618;-68
2021/12/09 10:01:38;;;;;;;6.97;4.27;;;;;;;5.55;89.95;97764.13;5020361;27;102717;-67
2021/12/09 10:04:13;;;;;;;4.63;3.37;;;;;;;5.43;89.40;97764.94;5019003;27;103346;-69
2021/12/09 10:06:45;;;;;;;7.13;4.00;;;;;;;5.53;88.72;97758.16;5020829;27;102958;-68
2021/12/09 10:09:15;;;;;;;5.53;3.37;;;;;;;5.48;88.60;97762.84;5020972;27;102671;-67
2021/12/09 10:11:44;;;;;;;4.93;3.23;;;;;;;5.56;88.69;97763.16;5011767;28;104001;-67
2021/12/09 10:14:15;;;;;;;4.13;3.60;;;;;;;5.55;89.33;97770.22;5016209;27;103277;-67
2021/12/09 10:16:47;;;;;;;5.03;3.67;;;;;;;5.59;89.21;97766.44;5022253;27;103183;-68
2021/12/09 10:19:19;;;;;;;5.77;3.13;;;;;;;5.46;87.97;97764.72;5019787;28;102686;-67
2021/12/09 10:21:50;;;;;;;6.33;3.90;;;;;;;5.35;88.68;97769.84;5020351;28;103761;-67
2021/12/09 10:24:18;;;;;;;4.37;3.80;;;;;;;5.55;89.00;97772.84;5019095;27;104442;-68
2021/12/09 10:26:47;;;;;;;5.07;4.33;;;;;;;5.56;88.36;97760.53;5021824;27;103158;-69
2021/12/09 10:29:25;;;;;;;5.33;3.40;;;;;;;5.74;89.44;97772.44;5019443;27;102728;-68
2021/12/09 10:31:57;;;;;;;4.63;3.30;;;;;;;5.64;89.62;97771.38;5020492;27;104045;-68
2021/12/09 10:34:33;;;;;;;5.37;3.10;;;;;;;5.70;90.00;97771.78;5020205;27;103230;-69
2021/12/09 10:37:16;;;;;;;5.60;3.63;;;;;;;5.82;88.40;97770.13;5020025;27;103246;-68
2021/12/09 10:39:49;;;;;;;6.37;3.10;;;;;;;5.75;88.44;97776.75;5016670;28;102706;-69
2021/12/09 10:42:22;;;;;;;3.33;2.90;;;;;;;5.65;88.41;97778.28;5017901;27;103674;-67
2021/12/09 10:44:56;;;;;;;4.73;3.50;;;;;;;5.69;88.82;97769.28;5018541;27;103371;-67
2021/12/09 10:50:27;;;;;;;5.67;4.90;;;;;;;5.34;91.17;97769.00;4998250;28;102804;-67
2021/12/09 10:53:03;;;;;;;6.23;4.37;;;;;;;5.46;91.47;97769.97;5017388;27;103798;-67
2021/12/09 10:55:36;;;;;;;7.03;4.80;;;;;;;5.57;90.75;97770.94;5014982;27;103844;-67
2021/12/09 10:58:08;;;;;;;6.90;4.50;;;;;;;5.58;90.32;97771.78;5019830;27;102975;-67
2021/12/09 11:00:44;;;;;;;7.80;4.93;;;;;;;5.66;90.14;97762.47;5018889;28;102560;-68
2021/12/09 11:03:16;;;;;;;5.37;4.53;;;;;;;5.81;90.24;97760.59;5020205;27;102933;-68
2021/12/09 11:05:48;;;;;;;4.53;3.40;;;;;;;5.89;89.89;97760.94;5016687;28;103222;-68
2021/12/09 11:08:25;;;;;;;10.47;7.10;;;;;;;5.83;89.95;97748.22;5019928;27;103150;-68
2021/12/09 11:11:05;;;;;;;10.37;6.43;;;;;;;5.98;89.65;97752.44;5010931;27;102720;-68
2021/12/09 11:13:46;;;;;;;8.60;6.30;;;;;;;5.99;89.46;97753.28;5021380;27;103874;-68
2021/12/09 11:16:22;;;;;;;9.37;5.33;;;;;;;6.04;89.61;97749.41;5021160;27;103270;-67
2021/12/09 11:18:52;;;;;;;8.53;6.03;;;;;;;6.17;89.81;97750.25;5021573;27;103150;-67
2021/12/09 11:21:22;;;;;;;6.63;5.50;;;;;;;6.08;90.82;97745.63;5020548;27;102531;-67
2021/12/09 11:23:56;;;;;;;5.80;5.00;;;;;;;6.14;90.54;97750.47;5019178;27;103764;-67
2021/12/09 11:26:45;;;;;;;6.40;4.33;;;;;;;6.14;89.27;97747.84;5013153;28;103262;-67
2021/12/09 11:29:18;;;;;;;11.23;5.63;;;;;;;6.19;88.16;97748.34;5019028;27;103131;-67
2021/12/09 11:31:59;;;;;;;7.00;4.50;;;;;;;6.37;88.55;97747.03;5018280;27;102778;-67
2021/12/09 11:34:36;;;;;;;5.93;3.80;;;;;;;6.41;88.01;97748.53;5016504;27;103102;-68
2021/12/09 11:37:10;;;;;;;5.57;3.60;;;;;;;6.37;88.71;97743.59;5021826;27;103897;-68
2021/12/09 11:39:40;;;;;;;5.87;4.03;;;;;;;6.15;85.38;97730.28;5022173;27;103179;-68
2021/12/09 11:42:15;;;;;;;7.00;4.07;;;;;;;6.11;84.97;97728.84;5021511;27;102564;-68
2021/12/09 11:45:05;;;;;;;5.27;3.03;;;;;;;6.08;83.78;97729.91;5020615;28;103697;-67
2021/12/09 11:47:33;;;;;;;6.37;2.90;;;;;;;6.16;84.29;97724.13;5020538;27;104156;-68